Alpha, Iowa
Current Conditions -  °F | °C
As of 11:35 PM on Sunday 19 Oct 2014 (Local Time) from KDEH Reporting Station
Clear Clear  
Wind Chill: 54°   Ceiling: Unl
Heat Index: 54°   Visibility: 10mi
Dew Point: 46°   Wind: 3mph
Humidity: 77%   Direction: NA
Pressure: 29.82"   Gusts: NA
Location:  43.0382°N, 92.0219°W
Report Text: KDEH 200435Z AUTO VRB03KT 10SM CLR 12/08 A2982 RMK AO2
Loading
Personal Weather Stations






























Interactive Weather Map New forecast layout! Learn more

10-Day Weather Forecast

Advertisements
Track Severe Weather on mobile